TAF KCRW
AMD KCRW 082057Z 0821/0918 27006KT P6SM SCT080 FM090000 00000KT P6SM FEW200=
METAR KCRW
WC KCRW
WS KCRW
WV KCRW